Time;durP1;ratioP1;P1;durP2;ratioP2;P2;SDS_P1;SDS_P2;PMS_P1;PMS_P2;Temp;Humidity;BMP_temperature;BMP_pressure;BME280_temperature;BME280_humidity;BME280_pressure;Samples;Min_cycle;Max_cycle;Signal;HPM_P1;HPM_P2
2023/06/23 00:01:49;;;;;;;2.57;2.27;;;22.10;81.60;;;;;;4969045;28;20989;-83
2023/06/23 00:04:20;;;;;;;2.67;2.40;;;22.00;81.60;;;;;;4970192;28;20478;-84
2023/06/23 00:06:48;;;;;;;3.40;2.27;;;22.00;81.70;;;;;;4966745;28;20587;-84
2023/06/23 00:09:17;;;;;;;2.93;2.17;;;21.80;82.20;;;;;;4969068;28;20570;-84
2023/06/23 00:11:46;;;;;;;3.30;3.00;;;21.70;82.30;;;;;;4968005;28;20482;-83
2023/06/23 00:14:14;;;;;;;2.63;2.10;;;21.60;83.10;;;;;;4970239;28;20550;-83
2023/06/23 00:16:42;;;;;;;4.53;2.30;;;21.60;83.40;;;;;;4969254;28;20552;-83
2023/06/23 00:19:11;;;;;;;4.10;2.77;;;21.60;83.00;;;;;;4965822;28;20454;-83
2023/06/23 00:21:43;;;;;;;3.90;2.27;;;21.70;82.50;;;;;;4970302;28;20477;-84
2023/06/23 00:24:12;;;;;;;3.80;2.90;;;21.70;82.60;;;;;;4972520;28;20478;-83
2023/06/23 00:26:40;;;;;;;3.27;2.70;;;21.80;82.30;;;;;;4961392;28;20471;-83
2023/06/23 00:29:09;;;;;;;2.87;2.60;;;21.80;82.20;;;;;;4969156;28;20462;-83
2023/06/23 00:31:37;;;;;;;4.83;4.23;;;21.80;82.60;;;;;;4968003;28;20458;-83
2023/06/23 00:34:06;;;;;;;10.17;9.27;;;21.90;82.30;;;;;;4968773;28;20467;-83
2023/06/23 00:36:36;;;;;;;21.00;18.80;;;21.90;82.20;;;;;;4974866;28;20467;-83
2023/06/23 00:39:06;;;;;;;24.50;22.50;;;22.10;81.70;;;;;;4966994;28;20468;-83
2023/06/23 00:41:35;;;;;;;13.87;12.67;;;22.10;81.50;;;;;;4968812;28;20494;-84
2023/06/23 00:44:08;;;;;;;7.03;6.23;;;22.20;81.70;;;;;;4973503;28;20486;-86
2023/06/23 00:46:37;;;;;;;4.80;3.63;;;22.30;81.50;;;;;;4972648;28;20510;-83
2023/06/23 00:49:05;;;;;;;2.53;2.33;;;22.50;80.70;;;;;;4972916;28;20465;-84
2023/06/23 00:51:34;;;;;;;2.77;2.57;;;22.40;80.60;;;;;;4970624;28;20752;-83
2023/06/23 00:54:06;;;;;;;3.10;2.70;;;22.40;80.80;;;;;;4976118;28;20558;-83
2023/06/23 00:56:35;;;;;;;3.33;3.03;;;22.50;80.80;;;;;;4970243;28;20565;-83
2023/06/23 00:59:03;;;;;;;3.83;2.87;;;22.60;80.60;;;;;;4971991;28;20529;-84
2023/06/23 01:01:32;;;;;;;4.10;2.63;;;22.60;80.40;;;;;;4973182;28;20459;-84
2023/06/23 01:04:01;;;;;;;4.10;2.60;;;22.50;80.40;;;;;;4958045;28;20526;-85
2023/06/23 01:06:37;;;;;;;2.93;2.63;;;22.60;80.40;;;;;;4973358;28;21810;-84
2023/06/23 01:09:15;;;;;;;3.63;3.30;;;22.50;80.30;;;;;;4973805;28;20487;-86
2023/06/23 01:11:54;;;;;;;5.90;3.13;;;22.30;81.00;;;;;;4973156;28;20454;-84
2023/06/23 01:14:31;;;;;;;5.03;4.23;;;22.30;81.80;;;;;;4973255;28;20543;-84
2023/06/23 01:17:04;;;;;;;4.80;3.80;;;22.30;81.70;;;;;;4967166;28;20455;-84
2023/06/23 01:19:51;;;;;;;5.07;4.53;;;22.30;81.70;;;;;;4955430;28;20468;-84
2023/06/23 01:22:27;;;;;;;3.87;3.33;;;22.30;81.20;;;;;;4961823;28;20486;-83
2023/06/23 01:25:11;;;;;;;3.37;2.90;;;22.10;81.80;;;;;;4974744;28;20561;-85
2023/06/23 01:27:59;;;;;;;3.80;3.27;;;22.10;81.50;;;;;;4969612;28;20961;-83
2023/06/23 01:30:32;;;;;;;4.90;3.47;;;22.10;81.10;;;;;;4974066;28;20493;-84
2023/06/23 01:33:06;;;;;;;6.53;5.93;;;22.10;81.10;;;;;;4973317;28;20967;-86
2023/06/23 01:35:43;;;;;;;6.90;6.40;;;22.10;80.50;;;;;;4948387;28;20471;-84
2023/06/23 01:38:19;;;;;;;5.23;4.03;;;22.10;80.70;;;;;;4970218;28;20460;-84
2023/06/23 01:40:54;;;;;;;3.90;3.27;;;22.00;80.70;;;;;;4970042;28;20547;-85
2023/06/23 01:43:29;;;;;;;2.90;2.57;;;22.00;80.60;;;;;;4976107;28;20830;-83
2023/06/23 01:46:04;;;;;;;3.30;2.20;;;22.00;80.50;;;;;;4971963;28;20477;-84
2023/06/23 01:48:35;;;;;;;3.83;3.17;;;21.70;81.10;;;;;;4971094;28;20454;-87
2023/06/23 01:51:06;;;;;;;4.00;3.20;;;21.70;81.20;;;;;;4972065;28;20862;-83
2023/06/23 01:53:34;;;;;;;3.00;2.70;;;21.60;81.50;;;;;;4962709;28;20448;-86
2023/06/23 01:56:04;;;;;;;4.80;2.77;;;21.60;81.70;;;;;;4969917;28;20501;-87
2023/06/23 01:58:34;;;;;;;3.57;3.10;;;21.70;81.50;;;;;;4971364;28;20485;-85
2023/06/23 02:01:04;;;;;;;3.83;3.40;;;21.70;81.20;;;;;;4974947;28;20490;-85
2023/06/23 02:03:34;;;;;;;6.60;5.43;;;21.70;81.40;;;;;;4971887;28;20523;-83
2023/06/23 02:06:04;;;;;;;5.70;4.23;;;21.70;81.20;;;;;;4962191;28;20486;-84
2023/06/23 02:08:35;;;;;;;5.97;3.87;;;21.60;81.30;;;;;;4973332;28;20490;-83
2023/06/23 02:11:05;;;;;;;4.70;3.70;;;21.50;81.90;;;;;;4969895;28;20458;-83
2023/06/23 02:13:35;;;;;;;4.47;3.50;;;21.40;82.50;;;;;;4973185;28;20463;-87
2023/06/23 02:16:08;;;;;;;5.70;3.40;;;21.30;82.50;;;;;;4973274;28;20466;-84
2023/06/23 02:18:37;;;;;;;4.43;3.30;;;21.30;82.50;;;;;;4974296;28;20437;-83
2023/06/23 02:21:07;;;;;;;4.90;4.50;;;21.30;82.80;;;;;;4956864;28;21036;-83
2023/06/23 02:23:36;;;;;;;6.50;5.37;;;21.40;82.60;;;;;;4967641;28;20459;-84
2023/06/23 02:26:05;;;;;;;5.90;5.40;;;21.40;82.10;;;;;;4964173;28;21044;-83
2023/06/23 02:28:36;;;;;;;3.37;3.07;;;21.20;82.40;;;;;;4974810;28;21297;-83
2023/06/23 02:31:08;;;;;;;4.90;4.50;;;21.20;83.20;;;;;;4971551;28;20462;-83
2023/06/23 02:33:38;;;;;;;6.47;4.30;;;21.20;83.10;;;;;;4957456;28;20502;-86
2023/06/23 02:36:09;;;;;;;4.30;3.33;;;21.20;83.20;;;;;;4971426;28;20794;-84
2023/06/23 02:38:39;;;;;;;6.23;3.93;;;21.00;84.50;;;;;;4956576;28;20879;-84
2023/06/23 02:41:09;;;;;;;4.10;3.70;;;21.00;84.30;;;;;;4972121;28;20470;-83
2023/06/23 02:43:45;;;;;;;4.63;3.53;;;21.00;84.70;;;;;;4956161;28;20466;-83
2023/06/23 02:46:18;;;;;;;5.90;5.40;;;20.80;85.00;;;;;;4955941;28;20527;-83
2023/06/23 02:48:50;;;;;;;5.03;4.60;;;20.70;85.90;;;;;;4973797;28;20442;-84
2023/06/23 02:51:21;;;;;;;3.60;3.30;;;20.60;86.70;;;;;;4970053;28;20462;-83
2023/06/23 02:53:55;;;;;;;3.40;3.10;;;20.60;87.30;;;;;;4972573;28;20489;-85
2023/06/23 02:56:26;;;;;;;4.33;3.23;;;20.60;87.10;;;;;;4968532;28;20473;-84
2023/06/23 02:59:02;;;;;;;5.57;4.40;;;20.60;87.60;;;;;;4973446;28;20453;-83
2023/06/23 03:01:33;;;;;;;6.20;5.60;;;20.60;87.90;;;;;;4970260;28;20474;-83
2023/06/23 03:04:01;;;;;;;5.40;4.90;;;20.70;87.90;;;;;;4971272;28;20464;-83
2023/06/23 03:06:35;;;;;;;11.57;10.37;;;20.90;87.30;;;;;;4955096;28;20502;-84
2023/06/23 03:09:05;;;;;;;10.93;10.03;;;21.00;86.80;;;;;;4971645;28;20871;-83
2023/06/23 03:11:34;;;;;;;11.27;10.37;;;21.10;86.80;;;;;;4974792;28;20461;-83
2023/06/23 03:14:03;;;;;;;17.60;16.10;;;21.00;86.80;;;;;;4972228;28;20520;-84
2023/06/23 03:16:36;;;;;;;19.57;17.90;;;21.00;86.70;;;;;;4970125;28;20501;-83
2023/06/23 03:19:15;;;;;;;5.33;4.93;;;20.80;87.70;;;;;;4971535;28;20542;-84
2023/06/23 03:21:49;;;;;;;4.10;3.60;;;20.90;87.70;;;;;;4971758;28;20484;-84
2023/06/23 03:24:20;;;;;;;7.33;3.67;;;21.10;87.40;;;;;;4971054;28;20966;-84
2023/06/23 03:26:51;;;;;;;5.50;2.70;;;21.30;86.70;;;;;;4968665;28;20513;-84
2023/06/23 03:29:21;;;;;;;1.80;1.70;;;21.50;86.10;;;;;;4968680;28;20454;-84
2023/06/23 03:31:53;;;;;;;1.63;1.53;;;21.50;85.20;;;;;;4970170;28;20484;-86
2023/06/23 03:34:24;;;;;;;2.00;1.43;;;21.70;84.00;;;;;;4979033;28;20486;-84
2023/06/23 03:36:53;;;;;;;1.80;1.70;;;21.90;83.40;;;;;;4972784;28;20992;-84
2023/06/23 03:39:25;;;;;;;1.50;1.40;;;22.10;82.60;;;;;;4971494;28;20853;-85
2023/06/23 03:41:54;;;;;;;2.10;1.47;;;22.10;81.80;;;;;;4971407;28;20489;-84
2023/06/23 03:44:27;;;;;;;1.60;1.50;;;22.00;81.70;;;;;;4971009;28;20469;-83
2023/06/23 03:47:01;;;;;;;1.63;1.53;;;21.80;82.00;;;;;;4972534;28;20467;-84
2023/06/23 03:49:35;;;;;;;1.50;1.40;;;21.70;82.50;;;;;;4970236;28;20491;-84
2023/06/23 03:52:06;;;;;;;1.70;1.60;;;21.60;82.90;;;;;;4970334;28;20473;-84
2023/06/23 03:54:35;;;;;;;2.60;2.40;;;21.60;82.90;;;;;;4967331;28;20488;-84
2023/06/23 03:57:06;;;;;;;2.10;1.93;;;21.60;82.90;;;;;;4970735;28;20464;-83
2023/06/23 03:59:37;;;;;;;1.77;1.67;;;21.60;82.10;;;;;;4970838;28;20465;-84
2023/06/23 04:02:10;;;;;;;2.60;2.03;;;21.50;81.60;;;;;;4970944;28;20491;-84
2023/06/23 04:04:40;;;;;;;2.57;2.37;;;21.40;81.90;;;;;;4970567;28;20470;-84
2023/06/23 04:07:10;;;;;;;2.20;2.00;;;21.30;82.60;;;;;;4970614;28;20508;-83
2023/06/23 04:09:42;;;;;;;2.50;2.30;;;21.10;83.00;;;;;;4971386;28;20461;-83
2023/06/23 04:12:13;;;;;;;2.83;2.33;;;21.00;83.30;;;;;;4969324;28;20466;-84
2023/06/23 04:14:45;;;;;;;3.43;2.57;;;20.90;83.40;;;;;;4970333;28;20488;-83
2023/06/23 04:17:17;;;;;;;3.17;2.90;;;20.90;83.40;;;;;;4970270;28;20552;-83
2023/06/23 04:19:51;;;;;;;3.20;2.97;;;21.00;83.30;;;;;;4970935;28;20517;-83
2023/06/23 04:22:21;;;;;;;3.80;3.50;;;21.10;83.00;;;;;;4971287;28;20563;-84
2023/06/23 04:24:50;;;;;;;3.60;3.30;;;21.10;83.00;;;;;;4969037;28;20489;-86
2023/06/23 04:27:20;;;;;;;4.33;3.93;;;21.20;82.70;;;;;;4970740;28;20536;-84
2023/06/23 04:29:51;;;;;;;4.20;3.80;;;21.20;82.60;;;;;;4968639;28;20470;-84
2023/06/23 04:32:22;;;;;;;4.00;3.70;;;21.20;82.70;;;;;;4968509;28;20462;-88
2023/06/23 04:34:51;;;;;;;4.13;3.73;;;21.10;82.50;;;;;;4954345;28;20557;-83
2023/06/23 04:37:24;;;;;;;7.00;4.10;;;21.10;82.70;;;;;;4969674;28;20975;-84
2023/06/23 04:39:59;;;;;;;4.70;4.30;;;21.10;82.00;;;;;;4971581;28;20476;-83
2023/06/23 04:42:34;;;;;;;5.50;4.10;;;21.00;82.40;;;;;;4966220;28;20454;-86
2023/06/23 04:45:05;;;;;;;5.80;5.30;;;20.80;82.10;;;;;;4969159;28;20464;-84
2023/06/23 04:47:39;;;;;;;4.53;4.00;;;20.80;82.50;;;;;;4970026;28;20529;-84
2023/06/23 04:50:12;;;;;;;4.53;4.23;;;20.70;83.40;;;;;;4963220;28;20465;-85
2023/06/23 04:52:47;;;;;;;5.40;4.90;;;20.60;83.20;;;;;;4967703;28;20548;-83
2023/06/23 04:55:17;;;;;;;4.83;4.37;;;20.70;83.30;;;;;;4968708;28;20465;-85
2023/06/23 04:57:48;;;;;;;5.00;4.60;;;20.80;83.20;;;;;;4966409;28;21289;-83
2023/06/23 05:00:21;;;;;;;5.67;5.07;;;20.90;82.20;;;;;;4964928;28;20459;-83
2023/06/23 05:02:51;;;;;;;5.53;5.03;;;20.90;82.10;;;;;;4965227;28;20470;-84
2023/06/23 05:05:24;;;;;;;5.00;4.50;;;21.00;82.60;;;;;;4968398;28;20458;-85
2023/06/23 05:07:54;;;;;;;5.27;4.77;;;21.00;81.70;;;;;;4965357;28;20579;-83
2023/06/23 05:10:24;;;;;;;6.27;5.67;;;21.00;82.20;;;;;;4971207;28;20469;-81
2023/06/23 05:12:55;;;;;;;5.60;5.10;;;21.10;82.10;;;;;;4968901;28;20463;-85
2023/06/23 05:15:25;;;;;;;5.90;5.17;;;21.30;81.30;;;;;;4966775;28;20463;-84
2023/06/23 05:17:58;;;;;;;5.13;4.73;;;21.40;80.90;;;;;;4972214;28;21037;-83
2023/06/23 05:20:27;;;;;;;6.00;5.50;;;21.40;79.80;;;;;;4968500;28;20466;-85
2023/06/23 05:23:02;;;;;;;6.97;6.23;;;21.30;80.50;;;;;;4979409;28;20457;-83
2023/06/23 05:25:32;;;;;;;6.50;6.00;;;21.20;80.70;;;;;;4973137;28;20468;-83
2023/06/23 05:28:03;;;;;;;6.63;5.73;;;21.10;80.80;;;;;;4969474;28;20470;-83
2023/06/23 05:30:36;;;;;;;6.70;6.10;;;21.10;81.70;;;;;;4973802;28;20930;-83
2023/06/23 05:33:08;;;;;;;7.40;6.80;;;21.00;81.50;;;;;;4973290;28;20454;-83
2023/06/23 05:35:40;;;;;;;8.00;6.17;;;21.00;81.70;;;;;;4967958;28;21019;-85
2023/06/23 05:38:10;;;;;;;6.23;5.70;;;20.90;81.70;;;;;;4972892;28;20493;-83
2023/06/23 05:40:39;;;;;;;7.03;6.33;;;20.70;82.90;;;;;;4970378;28;20509;-83
2023/06/23 05:43:07;;;;;;;7.10;6.00;;;20.60;82.80;;;;;;4970397;28;20452;-83
2023/06/23 05:45:35;;;;;;;7.50;6.80;;;20.60;82.80;;;;;;4969644;28;20497;-83
2023/06/23 05:48:13;;;;;;;7.30;6.20;;;20.60;82.90;;;;;;4970950;28;20483;-84
2023/06/23 05:50:43;;;;;;;7.90;7.10;;;20.50;83.10;;;;;;4972692;28;20573;-83
2023/06/23 05:53:16;;;;;;;8.40;7.60;;;20.60;83.40;;;;;;4972605;28;20472;-83
2023/06/23 05:55:48;;;;;;;6.20;5.63;;;20.60;83.10;;;;;;4971465;28;20472;-83
2023/06/23 05:58:19;;;;;;;6.77;6.07;;;20.60;82.60;;;;;;4970031;28;20493;-83
2023/06/23 06:00:54;;;;;;;6.50;5.90;;;20.60;82.30;;;;;;4968979;28;20459;-82
2023/06/23 06:03:30;;;;;;;7.50;6.87;;;20.70;81.80;;;;;;4971947;28;20479;-83
2023/06/23 06:06:02;;;;;;;7.60;6.90;;;20.90;80.70;;;;;;4966071;28;20473;-84
2023/06/23 06:08:32;;;;;;;7.47;6.77;;;20.80;80.50;;;;;;4951550;28;20509;-84
2023/06/23 06:11:02;;;;;;;7.60;6.90;;;20.80;80.90;;;;;;4973396;28;20996;-83
2023/06/23 06:13:36;;;;;;;7.70;7.00;;;20.90;80.50;;;;;;4971316;28;20984;-83
2023/06/23 06:16:06;;;;;;;8.63;7.40;;;20.80;79.90;;;;;;4970678;28;20977;-83
2023/06/23 06:18:37;;;;;;;7.67;7.03;;;20.80;79.90;;;;;;4972540;28;20461;-83
2023/06/23 06:21:07;;;;;;;8.03;7.20;;;20.90;80.60;;;;;;4970851;28;20520;-84
2023/06/23 06:23:37;;;;;;;8.33;6.87;;;21.00;80.20;;;;;;4966217;28;20463;-84
2023/06/23 06:26:06;;;;;;;9.40;8.47;;;21.10;79.80;;;;;;4971073;28;20458;-84
2023/06/23 06:28:35;;;;;;;9.50;8.47;;;21.00;79.70;;;;;;4955601;28;20471;-83
2023/06/23 06:31:04;;;;;;;8.23;7.43;;;21.00;79.50;;;;;;4969547;28;20481;-83
2023/06/23 06:33:36;;;;;;;8.77;7.97;;;20.90;79.80;;;;;;4969821;28;20518;-84
2023/06/23 06:36:08;;;;;;;10.67;9.40;;;21.00;79.40;;;;;;4968509;28;20535;-86
2023/06/23 06:38:40;;;;;;;9.47;8.57;;;21.00;79.60;;;;;;4968408;28;20466;-84
2023/06/23 06:41:09;;;;;;;9.90;9.00;;;21.10;79.20;;;;;;4971604;28;20469;-84
2023/06/23 06:43:38;;;;;;;9.80;8.90;;;21.20;78.80;;;;;;4970243;28;20462;-83
2023/06/23 06:46:07;;;;;;;9.10;8.30;;;21.20;78.90;;;;;;4960050;28;20462;-84
2023/06/23 06:48:39;;;;;;;10.40;9.40;;;21.20;78.90;;;;;;4953598;28;20829;-83
2023/06/23 06:51:09;;;;;;;10.57;8.93;;;21.20;78.50;;;;;;4966230;28;20470;-84
2023/06/23 06:53:38;;;;;;;10.47;9.43;;;21.20;78.50;;;;;;4971165;28;20497;-83
2023/06/23 06:56:07;;;;;;;11.13;10.13;;;21.10;77.70;;;;;;4970427;28;20469;-84
2023/06/23 06:58:36;;;;;;;15.40;10.07;;;21.20;78.60;;;;;;4965890;28;20451;-83
2023/06/23 07:01:06;;;;;;;11.20;10.00;;;21.30;77.80;;;;;;4968329;28;20981;-84
2023/06/23 07:03:39;;;;;;;12.00;10.90;;;21.30;77.70;;;;;;4971517;28;20458;-84
2023/06/23 07:06:07;;;;;;;10.97;9.93;;;21.30;77.60;;;;;;4972036;28;20933;-83
2023/06/23 07:08:36;;;;;;;12.30;11.10;;;21.30;76.70;;;;;;4971175;28;20482;-82
2023/06/23 07:11:04;;;;;;;12.97;11.33;;;21.20;76.80;;;;;;4959448;28;20890;-82
2023/06/23 07:13:32;;;;;;;12.67;11.37;;;21.20;77.60;;;;;;4967679;28;20517;-82
2023/06/23 07:16:00;;;;;;;9.37;8.37;;;21.30;77.10;;;;;;4967870;28;20528;-85
2023/06/23 07:18:29;;;;;;;8.27;7.57;;;21.50;77.20;;;;;;4970326;28;20478;-81
2023/06/23 07:21:00;;;;;;;7.00;6.40;;;21.90;77.50;;;;;;4970366;28;21772;-80
2023/06/23 07:23:28;;;;;;;6.63;5.80;;;22.30;76.90;;;;;;4975229;28;20463;-82
2023/06/23 07:25:57;;;;;;;6.47;5.97;;;22.70;76.10;;;;;;4959280;28;20466;-82
2023/06/23 07:28:25;;;;;;;7.77;6.87;;;23.10;75.20;;;;;;4968531;28;20550;-80
2023/06/23 07:30:54;;;;;;;6.60;6.10;;;23.40;74.60;;;;;;4971851;28;20463;-80
2023/06/23 07:33:22;;;;;;;6.60;6.10;;;23.70;74.00;;;;;;4971496;28;20474;-80
2023/06/23 07:35:51;;;;;;;6.50;6.00;;;23.90;73.30;;;;;;4973032;28;20490;-85
2023/06/23 07:38:20;;;;;;;6.47;5.97;;;24.10;72.90;;;;;;4971466;28;20477;-85
2023/06/23 07:40:49;;;;;;;6.60;6.00;;;24.30;72.40;;;;;;4973471;28;20508;-86
2023/06/23 07:43:17;;;;;;;6.40;5.80;;;24.40;72.00;;;;;;4975560;28;20556;-85
2023/06/23 07:45:45;;;;;;;6.20;5.67;;;24.60;71.60;;;;;;4973796;28;20500;-85
2023/06/23 07:48:13;;;;;;;7.10;6.40;;;24.70;71.30;;;;;;4970756;28;20470;-87
2023/06/23 07:50:43;;;;;;;6.40;5.90;;;24.80;71.10;;;;;;4971407;28;20469;-85
2023/06/23 07:53:11;;;;;;;6.60;6.10;;;25.00;70.80;;;;;;4972504;28;20555;-83
2023/06/23 07:55:41;;;;;;;6.43;5.93;;;25.00;70.60;;;;;;4968625;28;20587;-85
2023/06/23 07:58:09;;;;;;;6.23;5.73;;;25.10;70.60;;;;;;4972164;28;20510;-84
2023/06/23 08:00:37;;;;;;;6.53;6.03;;;25.20;70.20;;;;;;4968878;28;20541;-83
2023/06/23 08:03:05;;;;;;;6.90;6.30;;;25.30;70.00;;;;;;4974745;28;20469;-87
2023/06/23 08:05:34;;;;;;;8.00;6.50;;;25.40;69.90;;;;;;4971763;28;20551;-89
2023/06/23 08:08:02;;;;;;;6.60;6.00;;;25.40;69.80;;;;;;4971343;28;20496;-85
2023/06/23 08:10:33;;;;;;;9.77;6.50;;;25.50;69.70;;;;;;4976655;28;20493;-83
2023/06/23 08:13:10;;;;;;;5.43;5.03;;;25.50;69.50;;;;;;4968739;28;20457;-86
2023/06/23 08:15:40;;;;;;;5.90;5.40;;;25.60;69.40;;;;;;4969783;28;20461;-84
2023/06/23 08:18:09;;;;;;;6.50;6.00;;;25.60;69.20;;;;;;4970481;28;20454;-86
2023/06/23 08:20:37;;;;;;;6.67;6.17;;;25.70;69.10;;;;;;4966817;28;20544;-82
2023/06/23 08:23:05;;;;;;;7.23;6.47;;;25.80;68.90;;;;;;4969140;28;20561;-84
2023/06/23 08:25:33;;;;;;;6.33;5.83;;;25.80;68.80;;;;;;4970174;28;20525;-82
2023/06/23 08:28:02;;;;;;;6.63;6.13;;;25.80;68.80;;;;;;4977641;28;20736;-82
2023/06/23 08:30:32;;;;;;;7.07;6.53;;;25.90;68.70;;;;;;4970402;28;20463;-82
2023/06/23 08:33:00;;;;;;;7.30;6.70;;;25.90;68.70;;;;;;4978715;28;20559;-86
2023/06/23 08:35:29;;;;;;;7.27;6.60;;;25.90;68.50;;;;;;4971416;28;21213;-85
2023/06/23 08:37:57;;;;;;;7.33;6.73;;;26.00;68.30;;;;;;4972333;28;20470;-85
2023/06/23 08:40:26;;;;;;;6.67;6.17;;;26.10;68.20;;;;;;4970848;28;20462;-85
2023/06/23 08:42:55;;;;;;;6.90;6.30;;;26.10;68.10;;;;;;4954837;28;20463;-83
2023/06/23 08:45:26;;;;;;;6.50;5.90;;;26.20;68.10;;;;;;4968650;28;20462;-83
2023/06/23 08:48:01;;;;;;;6.67;6.07;;;26.20;68.00;;;;;;4970593;28;22437;-85
2023/06/23 08:50:30;;;;;;;6.73;6.20;;;26.20;68.00;;;;;;4968272;28;20465;-84
2023/06/23 08:52:59;;;;;;;6.07;5.67;;;26.20;68.00;;;;;;4972455;28;20504;-84
2023/06/23 08:55:27;;;;;;;7.20;6.60;;;26.20;68.00;;;;;;4975489;28;20505;-86
2023/06/23 08:58:00;;;;;;;6.70;6.10;;;26.30;67.80;;;;;;4975700;28;20470;-84
2023/06/23 09:00:28;;;;;;;6.70;6.10;;;26.30;67.80;;;;;;4980235;28;20497;-84
2023/06/23 09:02:58;;;;;;;6.97;6.37;;;26.40;67.70;;;;;;4969293;28;20587;-83
2023/06/23 09:05:27;;;;;;;6.97;6.47;;;26.40;67.60;;;;;;4975036;28;20465;-84
2023/06/23 09:07:55;;;;;;;6.73;6.23;;;26.40;67.40;;;;;;4974965;28;20506;-84
2023/06/23 09:10:24;;;;;;;6.90;6.30;;;26.50;67.50;;;;;;4973492;28;20471;-84
2023/06/23 09:13:17;;;;;;;6.53;5.97;;;26.50;67.40;;;;;;4975777;28;20468;-83
2023/06/23 09:15:47;;;;;;;6.43;5.93;;;26.50;67.30;;;;;;4971637;28;20518;-82
2023/06/23 09:18:31;;;;;;;7.10;6.50;;;26.60;67.30;;;;;;4972047;28;20487;-83
2023/06/23 09:21:02;;;;;;;7.17;6.47;;;26.60;67.30;;;;;;4976890;28;20555;-84
2023/06/23 09:23:31;;;;;;;5.60;5.10;;;26.60;67.20;;;;;;4982137;28;20552;-84
2023/06/23 09:26:03;;;;;;;6.87;6.37;;;26.70;67.00;;;;;;4983513;28;20468;-90
2023/06/23 09:28:35;;;;;;;6.90;6.33;;;26.70;66.90;;;;;;4973880;28;20485;-87
2023/06/23 09:31:10;;;;;;;6.83;6.00;;;26.70;66.80;;;;;;4971850;28;20472;-86
2023/06/23 09:33:48;;;;;;;6.17;5.73;;;26.70;66.70;;;;;;4978295;28;20492;-89
2023/06/23 09:36:17;;;;;;;6.77;6.27;;;26.70;66.80;;;;;;4988101;28;20571;-92
2023/06/23 09:38:48;;;;;;;6.87;6.37;;;26.80;66.80;;;;;;5003419;28;20470;-91
2023/06/23 09:41:18;;;;;;;6.00;5.50;;;26.80;66.80;;;;;;4996378;28;20474;-90
2023/06/23 09:43:51;;;;;;;7.00;6.40;;;26.80;66.90;;;;;;4999417;28;20490;-88
2023/06/23 09:46:22;;;;;;;5.83;5.40;;;26.80;66.90;;;;;;4991605;28;20440;-89
2023/06/23 09:48:53;;;;;;;6.10;5.70;;;26.80;66.80;;;;;;4977203;28;20476;-87
2023/06/23 09:51:22;;;;;;;5.87;5.37;;;26.90;66.80;;;;;;4975474;28;20473;-90
2023/06/23 09:53:51;;;;;;;6.27;5.77;;;26.90;66.80;;;;;;4988855;28;20496;-93
2023/06/23 09:56:21;;;;;;;6.37;5.97;;;26.90;66.80;;;;;;4975589;28;20466;-83
2023/06/23 09:58:50;;;;;;;6.00;5.60;;;26.90;66.80;;;;;;4972053;28;20526;-83
2023/06/23 10:01:20;;;;;;;5.53;4.87;;;26.90;66.80;;;;;;4972919;28;20803;-82
2023/06/23 10:03:50;;;;;;;6.23;5.73;;;26.90;66.90;;;;;;4976866;28;20466;-85
2023/06/23 10:06:26;;;;;;;6.40;5.90;;;27.00;66.80;;;;;;4964135;28;20458;-83
2023/06/23 10:08:55;;;;;;;6.77;6.07;;;27.00;66.80;;;;;;4969372;28;20867;-88
2023/06/23 10:11:32;;;;;;;6.63;6.03;;;27.00;66.80;;;;;;4972951;28;20474;-85
2023/06/23 10:14:05;;;;;;;5.67;5.27;;;27.10;66.70;;;;;;4953652;28;20467;-86
2023/06/23 10:16:35;;;;;;;6.20;5.60;;;27.10;66.90;;;;;;4971191;28;20459;-85
2023/06/23 10:19:05;;;;;;;6.60;6.10;;;27.10;66.80;;;;;;4974281;28;20476;-89
2023/06/23 10:21:36;;;;;;;5.30;4.90;;;27.10;66.60;;;;;;4971437;28;20520;-84
2023/06/23 10:24:06;;;;;;;6.20;5.70;;;27.10;66.70;;;;;;4970923;28;20469;-86
2023/06/23 10:26:38;;;;;;;5.80;5.33;;;27.10;67.10;;;;;;4968759;28;20459;-87
2023/06/23 10:29:07;;;;;;;6.07;5.57;;;27.10;67.00;;;;;;4970603;28;20484;-86
2023/06/23 10:31:37;;;;;;;5.40;5.00;;;27.10;66.80;;;;;;4973664;28;20498;-85
2023/06/23 10:34:11;;;;;;;6.00;5.50;;;27.20;66.70;;;;;;4973770;28;21022;-85
2023/06/23 10:36:43;;;;;;;6.50;6.00;;;27.20;66.60;;;;;;4978156;28;20908;-84
2023/06/23 10:39:14;;;;;;;6.30;5.80;;;27.20;66.60;;;;;;4971028;28;20467;-83
2023/06/23 10:41:45;;;;;;;7.17;6.67;;;27.20;66.40;;;;;;4968194;28;20505;-86
2023/06/23 10:44:17;;;;;;;5.80;5.40;;;27.20;66.30;;;;;;4973737;28;20477;-87
2023/06/23 10:46:45;;;;;;;6.73;6.23;;;27.30;66.30;;;;;;4967131;28;20475;-87
2023/06/23 10:49:14;;;;;;;6.30;5.70;;;27.30;66.30;;;;;;4970999;28;20547;-86
2023/06/23 10:51:50;;;;;;;5.20;4.90;;;27.30;66.50;;;;;;4970555;28;20510;-86
2023/06/23 10:54:27;;;;;;;5.87;5.37;;;27.30;66.40;;;;;;4968774;28;20520;-85
2023/06/23 10:56:55;;;;;;;6.70;6.20;;;27.30;66.20;;;;;;4967582;28;20500;-83
2023/06/23 10:59:25;;;;;;;6.17;5.67;;;27.40;66.20;;;;;;4967478;28;20572;-85
2023/06/23 11:02:10;;;;;;;6.67;6.17;;;27.40;66.10;;;;;;4950288;28;20463;-85
2023/06/23 11:04:50;;;;;;;6.33;5.83;;;27.40;66.10;;;;;;4963084;28;20826;-86
2023/06/23 11:07:19;;;;;;;6.37;5.87;;;27.40;66.00;;;;;;4971351;28;20498;-87
2023/06/23 11:09:54;;;;;;;6.43;5.93;;;27.40;66.10;;;;;;4956452;28;20571;-87
2023/06/23 11:12:29;;;;;;;6.37;5.87;;;27.40;66.00;;;;;;4970625;28;21126;-87
2023/06/23 11:15:03;;;;;;;6.37;5.87;;;27.40;66.10;;;;;;4969399;28;20452;-87
2023/06/23 11:17:39;;;;;;;6.57;6.03;;;27.40;66.10;;;;;;4968675;28;20475;-88
2023/06/23 11:20:11;;;;;;;5.80;5.40;;;27.40;66.00;;;;;;4968312;28;21031;-86
2023/06/23 11:22:53;;;;;;;6.50;5.90;;;27.50;65.90;;;;;;4975014;28;21130;-84
2023/06/23 11:25:27;;;;;;;6.60;6.10;;;27.50;65.90;;;;;;4965435;28;20515;-82
2023/06/23 11:28:29;;;;;;;6.70;6.10;;;27.50;65.70;;;;;;4970352;28;20470;-82
2023/06/23 11:31:11;;;;;;;5.97;5.57;;;27.50;65.70;;;;;;4964420;28;20509;-82
2023/06/23 11:33:40;;;;;;;6.37;5.90;;;27.50;65.70;;;;;;4973609;28;20459;-83
2023/06/23 11:36:10;;;;;;;6.83;5.90;;;27.50;65.50;;;;;;4972653;28;20994;-83
2023/06/23 11:38:43;;;;;;;6.00;5.60;;;27.50;65.40;;;;;;4963962;28;20478;-83
2023/06/23 11:41:13;;;;;;;6.10;5.60;;;27.50;65.50;;;;;;4971527;28;20471;-82
2023/06/23 11:43:42;;;;;;;5.80;5.30;;;27.50;65.50;;;;;;4974227;28;20939;-85
2023/06/23 11:46:12;;;;;;;6.13;5.63;;;27.50;65.40;;;;;;4963483;28;20468;-82
2023/06/23 11:48:41;;;;;;;7.03;5.97;;;27.50;65.20;;;;;;4972885;28;20509;-84
2023/06/23 11:51:13;;;;;;;6.10;5.70;;;27.60;64.90;;;;;;4972791;28;20802;-81
2023/06/23 11:53:42;;;;;;;5.97;5.47;;;27.60;64.50;;;;;;4972625;28;20449;-82
2023/06/23 11:56:17;;;;;;;5.20;4.80;;;27.50;64.10;;;;;;4973273;28;20454;-83
2023/06/23 11:58:50;;;;;;;5.30;4.90;;;27.50;62.70;;;;;;4970814;28;20453;-82
2023/06/23 12:01:20;;;;;;;5.53;5.03;;;27.50;62.40;;;;;;4970123;28;20965;-82
2023/06/23 12:03:48;;;;;;;5.63;5.23;;;27.40;61.50;;;;;;4968937;28;20809;-80
2023/06/23 12:06:18;;;;;;;5.03;4.53;;;27.40;61.90;;;;;;4967972;28;20466;-84
2023/06/23 12:08:49;;;;;;;5.23;4.83;;;27.40;61.20;;;;;;4963985;28;20495;-82
2023/06/23 12:11:18;;;;;;;4.90;4.60;;;27.40;61.90;;;;;;4971183;28;20474;-83
2023/06/23 12:13:47;;;;;;;5.47;4.13;;;27.40;61.00;;;;;;4960894;28;20465;-84
2023/06/23 12:16:15;;;;;;;4.70;4.37;;;27.30;61.50;;;;;;4967963;28;20462;-85
2023/06/23 12:18:44;;;;;;;4.63;4.23;;;27.20;61.50;;;;;;4968723;28;20952;-85
2023/06/23 12:21:15;;;;;;;4.93;4.50;;;27.20;61.60;;;;;;4969179;28;20466;-86
2023/06/23 12:23:44;;;;;;;4.87;4.20;;;27.10;61.50;;;;;;4966833;28;20469;-86
2023/06/23 12:26:14;;;;;;;4.87;4.53;;;27.10;61.00;;;;;;4965358;28;20469;-84
2023/06/23 12:28:42;;;;;;;5.03;4.63;;;27.10;60.90;;;;;;4970601;28;20928;-85
2023/06/23 12:31:11;;;;;;;4.77;4.40;;;27.10;60.60;;;;;;4967690;28;20994;-85
2023/06/23 12:33:40;;;;;;;4.63;4.23;;;27.30;60.00;;;;;;4951555;28;20761;-85
2023/06/23 12:36:15;;;;;;;5.13;4.63;;;27.40;59.50;;;;;;4969569;28;20474;-84
2023/06/23 12:38:43;;;;;;;5.33;4.93;;;27.50;59.00;;;;;;4971596;28;20790;-83
2023/06/23 12:41:16;;;;;;;5.63;4.40;;;27.60;58.40;;;;;;4969365;28;20873;-83
2023/06/23 12:43:45;;;;;;;5.57;5.07;;;27.60;58.90;;;;;;4966447;28;20528;-86
2023/06/23 12:46:15;;;;;;;5.00;4.70;;;27.60;58.70;;;;;;4967376;28;20471;-84
2023/06/23 12:48:44;;;;;;;5.30;4.90;;;27.60;58.20;;;;;;4967748;28;20474;-83
2023/06/23 12:51:12;;;;;;;4.90;4.60;;;27.60;58.10;;;;;;4966696;28;20481;-83
2023/06/23 12:53:41;;;;;;;4.70;4.33;;;27.50;58.80;;;;;;4965297;28;21356;-84
2023/06/23 12:56:09;;;;;;;5.83;5.33;;;27.60;58.80;;;;;;4970986;28;20469;-89
2023/06/23 12:58:39;;;;;;;4.63;4.33;;;27.70;59.00;;;;;;4969407;28;21042;-83
2023/06/23 13:01:07;;;;;;;4.60;4.20;;;27.70;59.20;;;;;;4969673;28;20500;-87
2023/06/23 13:03:36;;;;;;;5.17;4.77;;;27.80;58.90;;;;;;4970333;28;20467;-86
2023/06/23 13:06:04;;;;;;;5.23;4.73;;;27.90;59.00;;;;;;4970939;28;20971;-86